Latest Weather Observations for Portland Airport

IDV60801

Issued at 1:02 am EST Tuesday 1 September 2015 (issued every 30 minutes, with the page automatically refreshed every 10 minutes)

About weather observations | Map of weather stations | Latest weather observations for VIC | Other Formats
Station Details ID: 090171 Name: CASHMORE AIRPORT Lat: -38.31 Lon: 141.47 Height: 80.9 m
Data from the previous 72 hours. | See also: Recent months at Portland Airport
Date/Time
EST
Temp
°C
App
Temp
°C
Dew
Point
Rel
Hum
%
Delta-T
°C
Wind Press
QNH
hPa
Press
MSL
hPa
Rain
since 9 am
mm
Dir
 
Spd
km/h
Gust
km/h
Spd
kts
Gust
kts
01/01:00am 4.9 2.7 3.1 88 0.7 N 4 7 2 4 1018.1 1018.2 0.0
01/12:30am 6.1 3.4 3.9 86 0.9 NNW 7 7 4 4 1018.6 1018.7 0.0
01/12:00am 6.8 4.5 4.6 86 1.0 NNW 6 9 3 5 1019.0 1019.1 0.0
 
Date/Time
EST
Temp
°C
App
Temp
°C
Dew
Point
Rel
Hum
%
Delta-T
°C
Wind Press
QNH
hPa
Press
MSL
hPa
Rain
since 9 am
mm
Dir
 
Spd
km/h
Gust
km/h
Spd
kts
Gust
kts
31/11:30pm 6.8 4.0 5.0 88 0.8 N 9 11 5 6 1019.1 1019.2 0.0
31/11:00pm 7.1 4.7 5.1 87 0.9 N 7 9 4 5 1019.2 1019.3 0.0
31/10:30pm 7.7 5.2 5.0 83 1.2 NE 7 11 4 6 1019.5 1019.6 0.0
31/10:00pm 8.1 7.2 6.2 88 0.9 CALM 0 0 0 0 1019.6 1019.7 0.0
31/09:30pm 8.1 7.3 6.6 90 0.7 CALM 0 0 0 0 1019.6 1019.7 0.0
31/09:00pm 8.3 7.5 6.4 88 0.9 CALM 0 0 0 0 1019.8 1019.9 0.0
31/08:30pm 8.6 7.8 6.7 88 0.9 CALM 0 0 0 0 1019.8 1019.9 0.0
31/08:00pm 8.7 7.9 6.5 86 1.0 CALM 0 0 0 0 1019.6 1019.7 0.0
31/07:30pm 8.8 8.0 6.4 85 1.1 CALM 0 0 0 0 1019.4 1019.5 0.0
31/07:00pm 9.0 7.8 6.4 84 1.2 SE 2 6 1 3 1019.2 1019.3 0.0
31/06:30pm 9.0 6.8 6.3 83 1.2 SE 7 11 4 6 1019.1 1019.2 0.0
31/06:00pm 9.2 7.0 6.3 82 1.3 SE 7 11 4 6 1019.2 1019.3 0.0
31/05:30pm 9.3 6.8 6.4 82 1.3 ESE 9 13 5 7 1019.1 1019.2 0.0
31/05:00pm 9.6 7.6 6.9 83 1.3 E 7 13 4 7 1019.4 1019.5 0.0
31/04:30pm 10.2 7.7 6.7 79 1.6 SE 9 13 5 7 1019.4 1019.5 0.0
31/04:00pm 10.4 7.8 6.0 74 2.0 SE 9 13 5 7 1019.6 1019.7 0.0
31/03:30pm 10.7 8.5 6.3 74 2.1 SSE 7 11 4 6 1019.8 1019.9 0.0
31/03:00pm 10.9 8.3 6.3 73 2.2 S 9 13 5 7 1020.1 1020.2 0.0
31/02:30pm 10.5 7.9 6.1 74 2.1 SSW 9 13 5 7 1020.1 1020.2 0.0
31/02:00pm 10.2 7.6 6.2 76 1.9 SSW 9 13 5 7 1020.3 1020.4 0.0
31/01:30pm 10.3 7.4 6.6 78 1.7 SW 11 19 6 10 1020.7 1020.8 0.0
31/01:00pm 10.4 7.6 6.9 79 1.7 SSW 11 19 6 10 1021.0 1021.1 0.0
31/12:30pm 9.8 7.0 6.9 82 1.4 SSW 11 17 6 9 1021.5 1021.6 0.0
31/12:00pm 10.1 8.1 7.0 81 1.5 S 7 11 4 6 1021.9 1022.0 0.0
31/11:30am 10.3 8.2 6.8 79 1.7 SW 7 19 4 10 1022.0 1022.1 0.0
31/11:00am 10.1 7.6 6.6 79 1.6 SSW 9 15 5 8 1022.1 1022.2 0.0
31/10:30am 9.1 7.6 6.9 86 1.0 WNW 4 9 2 5 1022.2 1022.3 0.0
31/10:05am 8.5 6.4 6.8 89 0.8 SW 7 9 4 5 1022.4 1022.5 0.0
31/10:00am 8.5 6.4 6.8 89 0.8 SSW 7 9 4 5 1022.4 1022.5 0.0
31/09:48am 8.8 6.4 6.9 88 0.9 SSW 9 11 5 6 1022.4 1022.5 0.0
31/09:30am 8.8 6.7 6.6 86 1.0 SSW 7 13 4 7 1022.3 1022.4 0.0
31/09:00am 9.0 7.5 7.0 87 0.9 ENE 4 9 2 5 1022.4 1022.5 0.2
31/08:30am 8.1 7.1 7.5 96 0.3 NNE 2 9 1 5 1022.3 1022.4 0.2
31/08:00am 7.1 5.9 6.5 96 0.3 N 2 6 1 3 1022.2 1022.3 0.2
31/07:30am 7.0 5.1 6.6 97 0.2 N 6 7 3 4 1022.2 1022.3 0.2
31/07:00am 6.5 4.8 5.9 96 0.3 N 4 6 2 3 1022.0 1022.1 0.2
31/06:30am 6.5 5.6 5.9 96 0.3 CALM 0 0 0 0 1021.9 1022.0 0.2
31/06:00am 6.2 4.1 5.6 96 0.3 N 6 7 3 4 1021.9 1022.0 0.2
31/05:30am 6.2 4.5 5.8 97 0.2 N 4 7 2 4 1022.0 1022.1 0.2
31/05:00am 6.1 4.7 5.5 96 0.3 N 2 7 1 4 1022.1 1022.2 0.2
31/04:30am 6.1 3.8 5.7 97 0.2 N 7 9 4 5 1022.0 1022.1 0.2
31/04:25am 6.1 3.9 5.5 96 0.3 N 6 9 3 5 1022.0 1022.1 0.2
31/04:16am 6.1 3.8 5.7 97 0.2 N 7 9 4 5 1022.1 1022.2 0.2
31/04:06am 5.6 3.7 5.0 96 0.3 N 4 7 2 4 1022.1 1022.2 0.2
31/04:00am 5.4 2.9 4.8 96 0.3 N 7 9 4 5 1022.1 1022.2 0.2
31/03:30am 4.4 2.6 3.7 95 0.3 NNE 2 7 1 4 1022.2 1022.3 0.2
31/03:00am 4.5 3.1 3.8 95 0.3 CALM 0 0 0 0 1022.4 1022.5 0.2
31/02:30am 4.2 2.8 3.3 94 0.4 CALM 0 0 0 0 1022.9 1023.0 0.2
31/02:00am 4.2 2.7 3.2 93 0.4 CALM 0 0 0 0 1023.3 1023.4 0.2
31/01:30am 5.1 2.6 3.9 92 0.5 ESE 6 11 3 6 1023.6 1023.7 0.2
31/01:00am 5.6 4.3 4.1 90 0.6 CALM 0 0 0 0 1023.8 1023.9 0.2
31/12:30am 7.5 5.8 6.0 90 0.7 E 4 7 2 4 1024.0 1024.2 0.0
31/12:18am 7.7 5.7 6.2 90 0.7 E 6 7 3 4 1024.1 1024.3 0.0
31/12:00am 7.8 6.1 6.1 89 0.8 ESE 4 15 2 8 1024.2 1024.4 0.0
 
Date/Time
EST
Temp
°C
App
Temp
°C
Dew
Point
Rel
Hum
%
Delta-T
°C
Wind Press
QNH
hPa
Press
MSL
hPa
Rain
since 9 am
mm
Dir
 
Spd
km/h
Gust
km/h
Spd
kts
Gust
kts
30/11:53pm 7.6 6.2 5.7 88 0.9 E 2 7 1 4 1024.3 1024.5 0.0
30/11:30pm 7.1 5.9 4.8 85 1.0 CALM 0 0 0 0 1024.4 1024.6 0.0
30/11:00pm 8.5 5.8 5.8 83 1.2 ESE 9 17 5 9 1024.5 1024.7 0.0
30/10:30pm 8.3 5.9 5.2 81 1.4 E 7 11 4 6 1024.7 1024.9 0.0
30/10:00pm 8.3 6.1 5.1 80 1.4 ESE 6 11 3 6 1025.0 1025.2 0.0
30/09:30pm 8.3 5.8 4.9 79 1.5 SE 7 11 4 6 1025.2 1025.3 0.0
30/09:00pm 8.0 6.8 6.3 89 0.8 ESE 2 9 1 5 1025.0 1025.2 0.0
30/08:30pm 7.8 7.0 6.3 90 0.7 CALM 0 0 0 0 1025.0 1025.2 0.0
30/08:00pm 7.8 5.6 6.4 91 0.6 ESE 7 11 4 6 1025.0 1025.2 0.0
30/07:30pm 7.9 5.0 6.4 90 0.7 ESE 11 17 6 9 1025.0 1025.2 0.0
30/07:00pm 7.9 5.7 6.0 88 0.9 SE 7 9 4 5 1025.0 1025.2 0.0
30/06:30pm 8.3 7.0 5.9 85 1.1 ESE 2 9 1 5 1024.9 1025.1 0.0
30/06:00pm 9.0 6.0 6.1 82 1.3 SE 11 15 6 8 1024.9 1025.1 0.0
30/05:30pm 9.2 6.2 5.8 79 1.6 SE 11 15 6 8 1024.8 1025.0 0.0
30/05:00pm 10.0 6.3 6.3 78 1.7 SSE 15 19 8 10 1024.8 1025.0 0.0
30/04:30pm 10.5 7.8 5.5 71 2.3 SE 9 19 5 10 1024.9 1025.1 0.0
30/04:00pm 10.1 6.7 5.7 74 2.0 SE 13 17 7 9 1025.0 1025.2 0.0
30/03:30pm 10.6 7.2 6.0 73 2.1 ESE 13 20 7 11 1025.2 1025.3 0.0
30/03:00pm 11.5 7.8 4.7 63 3.1 S 13 19 7 10 1025.0 1025.2 0.0
30/02:30pm 10.7 7.1 4.8 67 2.7 SSE 13 17 7 9 1025.3 1025.4 0.0
30/02:00pm 10.9 7.9 6.1 72 2.2 SE 11 15 6 8 1025.5 1025.6 0.0
30/01:30pm 10.8 7.7 7.1 78 1.8 SE 13 20 7 11 1025.7 1025.8 0.0
30/01:00pm 10.1 6.8 6.4 78 1.7 SE 13 19 7 10 1026.1 1026.2 0.0
30/12:30pm 10.3 7.8 6.6 78 1.7 ESE 9 17 5 9 1026.4 1026.5 0.0
30/12:00pm 10.4 7.3 7.1 80 1.6 SSE 13 20 7 11 1026.8 1026.9 0.0
30/11:30am 11.8 8.8 7.7 76 2.0 ESE 13 20 7 11 1027.0 1027.1 0.0
30/11:00am 9.9 6.4 7.2 83 1.3 SE 15 20 8 11 1027.4 1027.5 0.0
30/10:30am 10.0 6.7 6.5 79 1.6 S 13 20 7 11 1027.4 1027.5 0.0
30/10:00am 9.9 7.2 7.5 85 1.1 SSE 11 19 6 10 1027.6 1027.7 0.0
30/09:30am 9.0 6.7 7.6 91 0.7 SSE 9 17 5 9 1027.8 1027.9 0.0
30/09:00am 9.3 6.7 7.7 90 0.8 SSE 11 17 6 9 1027.9 1028.0 1.2
30/08:30am 8.7 6.4 7.5 92 0.6 SE 9 15 5 8 1027.8 1027.9 1.2
30/08:00am 8.4 7.4 7.3 93 0.5 SE 2 7 1 4 1027.6 1027.7 1.2
30/07:55am 8.4 6.6 7.3 93 0.5 ESE 6 9 3 5 1027.5 1027.6 1.2
30/07:38am 8.4 5.7 7.2 92 0.6 SE 11 17 6 9 1027.4 1027.5 1.2
30/07:30am 8.4 5.7 7.2 92 0.6 SE 11 17 6 9 1027.4 1027.5 1.2
30/07:00am 7.7 6.9 6.3 91 0.6 CALM 0 6 0 3 1027.1 1027.2 1.2
30/06:30am 7.7 5.8 6.5 92 0.6 SSE 6 9 3 5 1026.9 1027.0 1.2
30/06:00am 7.6 6.5 7.0 96 0.3 SSW 2 7 1 4 1026.8 1026.9 1.2
30/05:30am 7.3 6.5 6.7 96 0.3 CALM 0 0 0 0 1026.7 1026.8 1.2
30/05:10am 7.6 6.1 7.0 96 0.3 ESE 4 7 2 4 1026.7 1026.8 1.2
30/05:00am 7.8 5.4 7.2 96 0.3 ESE 9 17 5 9 1026.6 1026.7 1.2
30/04:51am 7.8 5.1 7.2 96 0.3 SE 11 17 6 9 1026.7 1026.8 1.2
30/04:30am 7.9 5.2 7.3 96 0.3 SSE 11 13 6 7 1026.7 1026.8 1.2
30/04:18am 8.0 6.1 7.4 96 0.3 S 7 11 4 6 1026.8 1026.9 1.2
30/04:00am 8.0 6.1 7.4 96 0.3 S 7 13 4 7 1026.8 1026.9 1.0
30/03:30am 7.9 5.9 7.3 96 0.3 SSE 7 11 4 6 1027.0 1027.1 1.0
30/03:17am 7.8 5.8 7.2 96 0.3 S 7 13 4 7 1027.1 1027.2 1.0
30/03:06am 7.8 6.0 7.1 95 0.3 SSE 6 7 3 4 1027.2 1027.3 1.0
30/03:00am 7.9 5.9 7.3 96 0.3 SSE 7 9 4 5 1027.2 1027.3 1.0
30/02:30am 7.7 5.7 7.0 95 0.3 SSE 7 9 4 5 1027.6 1027.7 1.0
30/02:18am 7.8 5.8 7.1 95 0.3 SSE 7 9 4 5 1027.7 1027.8 1.0
30/02:04am 7.8 6.4 7.1 95 0.3 S 4 7 2 4 1027.9 1028.0 1.0
30/02:00am 7.8 6.4 7.1 95 0.3 S 4 7 2 4 1027.9 1028.0 1.0
30/01:57am 7.9 6.1 7.1 95 0.4 S 6 7 3 4 1027.9 1028.0 1.0
30/01:55am 7.9 6.1 7.1 95 0.4 S 6 9 3 5 1027.9 1028.0 1.0
30/01:39am 8.3 5.6 7.5 95 0.4 SSE 11 19 6 10 1028.1 1028.2 0.8
30/01:38am 8.3 5.6 7.5 95 0.4 SSE 11 19 6 10 1028.1 1028.2 0.8
30/01:30am 8.2 5.1 7.4 95 0.4 SE 13 17 7 9 1028.1 1028.2 0.8
30/01:22am 8.2 5.1 7.4 95 0.4 SE 13 17 7 9 1028.0 1028.1 0.8
30/01:17am 8.3 5.3 7.5 95 0.4 SE 13 20 7 11 1028.0 1028.1 0.8
30/01:03am 8.4 5.8 7.6 95 0.4 SSE 11 20 6 11 1028.1 1028.2 0.6
30/01:00am 8.4 6.1 7.6 95 0.4 SSE 9 20 5 11 1028.1 1028.2 0.6
30/12:57am 8.3 6.0 7.5 95 0.4 SSE 9 13 5 7 1028.1 1028.2 0.6
30/12:33am 8.3 5.2 7.4 94 0.4 SSE 13 20 7 11 1028.3 1028.4 0.6
30/12:32am 8.2 5.1 7.3 94 0.4 SSE 13 20 7 11 1028.3 1028.4 0.6
30/12:30am 8.3 5.2 7.2 93 0.5 SSE 13 19 7 10 1028.3 1028.4 0.6
30/12:10am 8.7 6.4 7.5 92 0.6 S 9 17 5 9 1028.3 1028.4 0.4
30/12:00am 8.4 6.0 7.2 92 0.6 S 9 13 5 7 1028.4 1028.5 0.2
 
Date/Time
EST
Temp
°C
App
Temp
°C
Dew
Point
Rel
Hum
%
Delta-T
°C
Wind Press
QNH
hPa
Press
MSL
hPa
Rain
since 9 am
mm
Dir
 
Spd
km/h
Gust
km/h
Spd
kts
Gust
kts
29/11:34pm 8.6 6.2 7.1 90 0.7 SSE 9 15 5 8 1028.5 1028.6 0.2
29/11:30pm 8.6 5.8 7.1 90 0.7 SSE 11 15 6 8 1028.6 1028.7 0.2
29/11:00pm 7.8 5.2 6.1 89 0.8 SSE 9 17 5 9 1028.7 1028.8 0.2
29/10:30pm 8.6 5.8 6.9 89 0.8 SSE 11 19 6 10 1028.8 1028.9 0.2
29/10:00pm 8.5 4.8 6.3 86 1.0 SSE 15 22 8 12 1028.8 1028.9 0.2
29/09:30pm 8.8 5.5 6.4 85 1.1 SSE 13 19 7 10 1029.0 1029.1 0.2
29/09:00pm 8.5 6.3 6.3 86 1.0 SSE 7 11 4 6 1029.2 1029.3 0.2
29/08:30pm 8.4 5.2 6.7 89 0.8 SSE 13 19 7 10 1029.0 1029.1 0.2
29/08:00pm 8.3 5.1 6.8 90 0.7 SSE 13 24 7 13 1029.0 1029.1 0.2
29/07:30pm 8.2 6.1 6.5 89 0.8 S 7 11 4 6 1028.9 1029.0 0.2
29/07:00pm 8.4 5.5 6.5 88 0.9 SSW 11 24 6 13 1028.9 1029.0 0.2
29/06:30pm 8.2 5.5 5.7 84 1.1 S 9 15 5 8 1028.7 1028.8 0.2
29/06:00pm 8.0 4.9 5.6 85 1.1 S 11 19 6 10 1028.6 1028.7 0.2
29/05:30pm 8.2 5.2 6.0 86 1.0 S 11 20 6 11 1028.6 1028.7 0.2
29/05:00pm 8.8 5.9 6.4 85 1.1 SSE 11 17 6 9 1028.7 1028.8 0.2
29/04:30pm 9.5 5.3 5.5 76 1.8 S 17 26 9 14 1028.6 1028.7 0.0
29/04:00pm 10.3 6.4 5.5 72 2.2 S 15 22 8 12 1028.6 1028.7 0.0
29/03:30pm 9.7 5.8 5.3 74 2.0 S 15 20 8 11 1028.7 1028.8 0.0
29/03:00pm 9.7 5.6 4.5 70 2.3 S 15 26 8 14 1028.8 1028.9 0.0
29/02:30pm 10.6 6.5 4.3 65 2.8 S 15 24 8 13 1028.9 1029.0 0.0
29/02:00pm 10.3 6.1 3.8 64 2.8 S 15 26 8 14 1029.0 1029.1 0.0
29/01:30pm 10.1 5.0 3.2 62 3.0 S 19 24 10 13 1029.3 1029.4 0.0
29/01:00pm 11.3 7.2 4.1 61 3.2 S 15 20 8 11 1029.5 1029.6 0.0
29/12:30pm 10.2 5.6 3.9 65 2.8 SSE 17 26 9 14 1029.9 1030.0 0.0
29/12:00pm 10.1 5.9 4.0 66 2.7 SSE 15 24 8 13 1030.0 1030.1 0.0
29/11:30am 10.3 5.9 4.7 68 2.5 SSE 17 28 9 15 1030.1 1030.2 0.0
29/11:00am 9.5 4.5 3.5 66 2.6 SSE 19 30 10 16 1030.2 1030.3 0.0
29/10:30am 9.4 4.1 2.0 60 3.1 SSE 19 32 10 17 1030.2 1030.3 0.0
29/10:00am 10.1 4.9 2.2 58 3.3 SSE 19 26 10 14 1030.1 1030.2 0.0
29/09:30am 9.5 4.2 1.7 58 3.3 SSE 19 30 10 16 1030.1 1030.2 0.0
29/09:00am 10.0 4.4 1.4 55 3.6 SSE 20 30 11 16 1030.2 1030.3 0.6
29/08:30am 8.8 3.8 1.5 60 3.0 SE 17 24 9 13 1030.1 1030.2 0.6
29/08:00am 8.2 3.9 1.1 61 2.9 SE 13 20 7 11 1030.0 1030.1 0.6
29/07:30am 7.5 3.0 -0.5 57 3.1 SSE 13 20 7 11 1029.7 1029.8 0.6
29/07:00am 7.4 3.3 -0.1 59 2.9 S 11 20 6 11 1029.4 1029.5 0.6
29/06:30am 7.5 3.5 0.7 62 2.7 SSE 11 17 6 9 1029.2 1029.3 0.6
29/06:00am 7.0 2.6 0.5 63 2.5 SE 13 17 7 9 1029.1 1029.2 0.6
29/05:30am 7.4 3.1 0.8 63 2.6 SE 13 20 7 11 1029.1 1029.2 0.6
29/05:00am 6.6 3.2 1.7 71 2.0 SSE 9 15 5 8 1029.0 1029.1 0.6
29/04:30am 4.6 2.7 0.4 74 1.6 CALM 0 0 0 0 1028.9 1029.0 0.6
29/04:00am 5.5 1.8 0.1 68 2.1 SE 9 13 5 7 1028.8 1028.9 0.6
29/03:30am 6.8 2.4 0.5 64 2.5 SE 13 17 7 9 1028.9 1029.0 0.6
29/03:00am 7.8 3.7 2.1 67 2.3 SE 13 19 7 10 1029.2 1029.3 0.6
29/02:30am 7.1 3.6 1.0 65 2.4 SE 9 13 5 7 1029.4 1029.5 0.6
29/02:00am 7.2 2.8 0.6 63 2.6 ESE 13 22 7 12 1029.5 1029.6 0.6
29/01:30am 7.1 2.8 0.8 64 2.5 ESE 13 19 7 10 1029.4 1029.5 0.6

Other Formats:

Comma delimited format used in spreadsheet applications
http://www.bom.gov.au/fwo/IDV60801/IDV60801.94828.axf

JavaScript Object Notation format (JSON) in row-major order
http://www.bom.gov.au/fwo/IDV60801/IDV60801.94828.json